Madbury, New Hampshire
Current Conditions -  °F | °C
As of 5:58 AM on Friday 28 Nov 2014 (Local Time) from KDAW Reporting Station
Light Snow Light Snow  
Wind Chill: 18°   Ceiling: 2900
Heat Index: 25°   Visibility: 1.7mi
Dew Point: 21°   Wind: 6mph
Humidity: 85%   Direction: 10°N
Pressure: 30.02"   Gusts: NA
Location:  43.17°N, 70.93°W
Report Text: KDAW 281058Z AUTO 01005KT 1 3/4SM -SN BR OVC029 M04/M06 A3002 RMK AO2 P0000 T10391061
Loading
Personal Weather Stations






























Interactive Weather Map New forecast layout! Learn more

10-Day Weather Forecast

Advertisements
Track Severe Weather on mobile